createdAt,value
2023-05-16T00:02:22.387Z,96518.50
2023-05-16T00:06:22.837Z,96520.25
2023-05-16T00:10:23.348Z,96520.03
2023-05-16T00:14:26.792Z,96510.81
2023-05-16T00:18:27.334Z,96509.78
2023-05-16T00:22:28.093Z,96523.25
2023-05-16T00:26:28.488Z,96532.09
2023-05-16T00:30:31.777Z,96515.63
2023-05-16T00:34:32.119Z,96529.16
2023-05-16T00:38:32.630Z,96530.09
2023-05-16T00:42:33.371Z,96529.88
2023-05-16T00:46:36.393Z,96539.72
2023-05-16T00:50:37.924Z,96521.59
2023-05-16T00:54:39.809Z,96528.03
2023-05-16T00:58:40.854Z,96518.66
2023-05-16T01:02:44.842Z,96522.25
2023-05-16T01:06:45.203Z,96519.78
2023-05-16T01:10:56.391Z,96524.38
2023-05-16T01:15:08.768Z,96516.84
2023-05-16T01:19:31.366Z,96514.63
2023-05-16T01:23:47.109Z,96517.13
2023-05-16T01:27:52.521Z,96523.16
2023-05-16T01:31:52.961Z,96512.06
2023-05-16T01:36:04.416Z,96527.34
2023-05-16T01:40:15.344Z,96518.75
2023-05-16T01:44:28.992Z,96519.41
2023-05-16T01:48:36.698Z,96515.53
2023-05-16T01:52:45.575Z,96525.72
2023-05-16T01:56:54.403Z,96517.13
2023-05-16T02:01:05.754Z,96513.53
2023-05-16T02:05:06.049Z,96525.50
2023-05-16T02:09:06.724Z,96511.97
2023-05-16T02:13:06.979Z,96527.00
2023-05-16T02:17:10.636Z,96505.06
2023-05-16T02:21:10.991Z,96535.59
2023-05-16T02:25:13.346Z,96534.34
2023-05-16T02:29:15.402Z,96524.59
2023-05-16T02:33:18.554Z,96533.19
2023-05-16T02:37:20.036Z,96537.41
2023-05-16T02:41:23.389Z,96534.78
2023-05-16T02:45:23.645Z,96537.56
2023-05-16T02:49:26.968Z,96532.22
2023-05-16T02:53:27.312Z,96550.91
2023-05-16T02:57:27.508Z,96554.59
2023-05-16T03:01:27.741Z,96552.69
2023-05-16T03:05:30.821Z,96557.94
2023-05-16T03:09:31.265Z,96552.59
2023-05-16T03:13:31.974Z,96551.53
2023-05-16T03:17:32.675Z,96552.59
2023-05-16T03:21:35.647Z,96534.41
2023-05-16T03:25:36.474Z,96527.69
2023-05-16T03:29:36.698Z,96529.00
2023-05-16T03:33:38.360Z,96554.22
2023-05-16T03:37:41.408Z,96548.81
2023-05-16T03:41:42.065Z,96546.91
2023-05-16T03:45:42.344Z,96545.59
2023-05-16T03:49:42.812Z,96551.13
2023-05-16T03:53:45.971Z,96537.84
2023-05-16T03:57:48.001Z,96562.44
2023-05-16T04:01:48.242Z,96537.06
2023-05-16T04:05:48.521Z,96531.94
2023-05-16T04:09:51.589Z,96573.06
2023-05-16T04:13:52.451Z,96575.03
2023-05-16T04:17:52.761Z,96571.28
2023-05-16T04:21:53.137Z,96577.13
2023-05-16T04:25:57.130Z,96571.00
2023-05-16T04:29:58.319Z,96565.94
2023-05-16T04:33:58.709Z,96580.66
2023-05-16T04:37:59.026Z,96577.22
2023-05-16T04:42:02.089Z,96578.81
2023-05-16T04:46:02.689Z,96568.50
2023-05-16T04:50:03.143Z,96581.47
2023-05-16T04:54:03.378Z,96579.28
2023-05-16T04:58:06.493Z,96589.81
2023-05-16T05:02:08.103Z,96582.03
2023-05-16T05:06:09.000Z,96588.63
2023-05-16T05:10:11.152Z,96582.47
2023-05-16T05:14:14.151Z,96591.47
2023-05-16T05:18:14.698Z,96542.03
2023-05-16T05:22:14.922Z,96585.72
2023-05-16T05:26:15.261Z,96569.03
2023-05-16T05:30:18.245Z,96576.78
2023-05-16T05:34:18.589Z,96588.16
2023-05-16T05:38:18.823Z,96582.56
2023-05-16T05:42:19.287Z,96578.03
2023-05-16T05:46:22.159Z,96580.72
2023-05-16T05:50:22.646Z,96592.38
2023-05-16T05:54:23.790Z,96592.06
2023-05-16T05:58:25.108Z,96574.78
2023-05-16T06:02:28.195Z,96580.84
2023-05-16T06:06:29.436Z,96580.91
2023-05-16T06:10:29.770Z,96589.59
2023-05-16T06:14:30.301Z,96590.22
2023-05-16T06:18:33.177Z,96594.53
2023-05-16T06:22:33.902Z,96567.47
2023-05-16T06:26:34.081Z,96594.88
2023-05-16T06:30:34.254Z,96594.63
2023-05-16T06:34:37.896Z,96592.94
2023-05-16T06:38:38.175Z,96603.13
2023-05-16T06:42:38.602Z,96601.13
2023-05-16T06:46:38.968Z,96581.41
2023-05-16T06:50:42.090Z,96586.81
2023-05-16T06:54:42.489Z,96579.50
2023-05-16T06:58:42.961Z,96585.84
2023-05-16T07:02:43.257Z,96594.13
2023-05-16T07:06:46.368Z,96590.97
2023-05-16T07:10:46.939Z,96582.50
2023-05-16T07:14:47.998Z,96594.38
2023-05-16T07:18:48.458Z,96595.56
2023-05-16T07:22:51.799Z,96596.13
2023-05-16T07:26:52.282Z,96593.72
2023-05-16T07:30:52.813Z,96593.91
2023-05-16T07:34:53.113Z,96582.56
2023-05-16T07:38:57.247Z,96588.81
2023-05-16T07:42:57.923Z,96584.47
2023-05-16T07:46:58.175Z,96593.16
2023-05-16T07:50:58.421Z,96593.97
2023-05-16T07:55:01.375Z,96611.34
2023-05-16T07:59:03.248Z,96611.53
2023-05-16T08:03:03.953Z,96611.06
2023-05-16T08:07:04.514Z,96613.31
2023-05-16T08:11:08.293Z,96624.66
2023-05-16T08:15:11.445Z,96601.34
2023-05-16T08:19:11.862Z,96614.56
2023-05-16T08:23:12.273Z,96620.59
2023-05-16T08:27:15.111Z,96609.13
2023-05-16T08:31:15.534Z,96597.91
2023-05-16T08:35:16.267Z,96600.63
2023-05-16T08:39:16.561Z,96606.41
2023-05-16T08:43:19.448Z,96603.09
2023-05-16T08:47:25.146Z,96608.81
2023-05-16T08:51:31.116Z,96598.72
2023-05-16T08:55:31.878Z,96601.44
2023-05-16T08:59:35.809Z,96613.72
2023-05-16T09:03:36.457Z,96622.47
2023-05-16T09:07:37.547Z,96627.31
2023-05-16T09:11:38.294Z,96623.13
2023-05-16T09:15:41.518Z,96630.13
2023-05-16T09:19:43.158Z,96628.28
2023-05-16T09:23:47.243Z,96635.44
2023-05-16T09:27:49.501Z,96629.38
2023-05-16T09:31:53.007Z,96623.91
2023-05-16T09:35:59.902Z,96629.34
2023-05-16T09:40:00.137Z,96611.16
2023-05-16T09:44:02.815Z,96594.44
2023-05-16T09:48:10.388Z,96590.16
2023-05-16T09:52:10.672Z,96581.00
2023-05-16T09:56:14.686Z,96559.91
2023-05-16T10:00:17.229Z,96588.34
2023-05-16T10:04:20.452Z,96582.41
2023-05-16T10:08:21.497Z,96576.03
2023-05-16T10:12:23.302Z,96578.78
2023-05-16T10:16:27.012Z,96575.63
2023-05-16T10:20:30.643Z,96582.53
2023-05-16T10:24:46.689Z,96599.94
2023-05-16T10:28:47.333Z,96591.59
2023-05-16T10:32:50.709Z,96590.69
2023-05-16T10:36:55.211Z,96600.00
2023-05-16T10:40:57.010Z,96595.06
2023-05-16T10:45:05.122Z,96594.56
2023-05-16T10:49:24.161Z,96593.38
2023-05-16T10:53:36.087Z,96604.41
2023-05-16T10:57:37.238Z,96604.19
2023-05-16T11:01:39.009Z,96601.28
2023-05-16T11:05:40.159Z,96603.69
2023-05-16T11:09:48.237Z,96602.25
2023-05-16T11:13:57.882Z,96610.75
2023-05-16T11:18:10.164Z,96616.50
2023-05-16T11:22:28.652Z,96610.94
2023-05-16T11:26:31.542Z,96617.78
2023-05-16T11:30:32.038Z,96603.69
2023-05-16T11:34:33.488Z,96616.88
2023-05-16T11:38:35.423Z,96616.84
2023-05-16T11:42:41.679Z,96627.66
2023-05-16T11:46:43.885Z,96617.41
2023-05-16T11:50:44.491Z,96628.78
2023-05-16T11:54:45.090Z,96632.22
2023-05-16T11:58:48.407Z,96630.53
2023-05-16T12:02:49.971Z,96621.25
2023-05-16T12:07:04.384Z,96632.75
2023-05-16T12:11:04.743Z,96633.91
2023-05-16T12:15:11.130Z,96622.31
2023-05-16T12:19:12.569Z,96615.00
2023-05-16T12:23:15.092Z,96609.44
2023-05-16T12:27:15.599Z,96628.72
2023-05-16T12:31:31.606Z,96627.16
2023-05-16T12:35:35.144Z,96645.03
2023-05-16T12:39:41.652Z,96647.09
2023-05-16T12:43:41.915Z,96654.84
2023-05-16T12:47:44.688Z,96655.38
2023-05-16T12:51:52.742Z,96653.81
2023-05-16T12:55:53.090Z,96675.63
2023-05-16T12:59:53.432Z,96666.94
2023-05-16T13:03:56.732Z,96668.16
2023-05-16T13:07:57.265Z,96674.28
2023-05-16T13:11:57.487Z,96676.56
2023-05-16T13:15:57.806Z,96677.47
2023-05-16T13:20:00.848Z,96683.56
2023-05-16T13:24:01.511Z,96695.84
2023-05-16T13:28:01.734Z,96693.19
2023-05-16T13:32:02.403Z,96700.50
2023-05-16T13:36:05.984Z,96712.28
2023-05-16T13:40:10.747Z,96709.09
2023-05-16T13:44:11.245Z,96716.47
2023-05-16T13:48:11.704Z,96708.63
2023-05-16T13:52:15.092Z,96717.09
2023-05-16T13:56:15.395Z,96716.16
2023-05-16T14:00:42.829Z,96713.75
2023-05-16T14:04:37.388Z,96718.88
2023-05-16T14:08:40.445Z,96725.06
2023-05-16T14:12:43.024Z,96735.41
2023-05-16T14:16:46.213Z,96731.91
2023-05-16T14:20:47.098Z,96746.69
2023-05-16T14:24:49.860Z,96737.28
2023-05-16T14:28:50.072Z,96750.88
2023-05-16T14:32:50.362Z,96748.81
2023-05-16T14:36:51.043Z,96749.38
2023-05-16T14:40:53.946Z,96740.16
2023-05-16T14:44:54.236Z,96759.06
2023-05-16T14:48:54.434Z,96758.25
2023-05-16T14:52:54.799Z,96756.13
2023-05-16T14:57:00.288Z,96759.13
2023-05-16T15:01:01.094Z,96755.00
2023-05-16T15:05:01.465Z,96757.03
2023-05-16T15:09:01.906Z,96757.41
2023-05-16T15:13:04.876Z,96756.31
2023-05-16T15:17:06.692Z,96774.91
2023-05-16T15:21:09.959Z,96769.88
2023-05-16T15:25:12.721Z,96780.03
2023-05-16T15:29:15.660Z,96782.88
2023-05-16T15:33:16.525Z,96775.25
2023-05-16T15:37:16.860Z,96780.25
2023-05-16T15:41:31.901Z,96775.41
2023-05-16T15:45:40.689Z,96783.84
2023-05-16T15:49:41.777Z,96783.13
2023-05-16T15:53:42.576Z,96771.31
2023-05-16T15:57:44.121Z,96791.97
2023-05-16T16:01:47.392Z,96790.16
2023-05-16T16:05:51.568Z,96804.50
2023-05-16T16:09:51.904Z,96800.28
2023-05-16T16:13:53.522Z,96808.69
2023-05-16T16:17:56.485Z,96806.59
2023-05-16T16:21:56.877Z,96819.06
2023-05-16T16:25:57.244Z,96812.00
2023-05-16T16:29:58.289Z,96825.53
2023-05-16T16:34:01.167Z,96833.34
2023-05-16T16:38:06.760Z,96841.00
2023-05-16T16:42:07.951Z,96848.47
2023-05-16T16:46:08.683Z,96846.31
2023-05-16T16:50:13.123Z,96854.63
2023-05-16T16:54:13.362Z,96865.22
2023-05-16T16:58:13.722Z,96844.28
2023-05-16T17:02:14.024Z,96872.47
2023-05-16T17:06:17.007Z,96872.34
2023-05-16T17:10:17.974Z,96868.78
2023-05-16T17:14:18.262Z,96881.00
2023-05-16T17:18:19.774Z,96900.22
2023-05-16T17:22:23.462Z,96890.25
2023-05-16T17:26:23.862Z,96866.06
2023-05-16T17:30:24.481Z,96914.09
2023-05-16T17:34:24.909Z,96923.59
2023-05-16T17:38:28.033Z,96923.50
2023-05-16T17:42:28.468Z,96925.97
2023-05-16T17:46:28.996Z,96922.94
2023-05-16T17:50:29.318Z,96932.69
2023-05-16T17:54:32.822Z,96937.31
2023-05-16T17:58:33.244Z,96940.63
2023-05-16T18:02:34.945Z,96948.78
2023-05-16T18:06:37.379Z,96937.34
2023-05-16T18:10:51.171Z,96928.06
2023-05-16T18:14:52.545Z,96940.97
2023-05-16T18:18:53.138Z,96948.25
2023-05-16T18:22:53.529Z,96940.56
2023-05-16T18:26:56.587Z,96951.91
2023-05-16T18:30:56.959Z,96956.88
2023-05-16T18:34:57.783Z,96952.66
2023-05-16T18:38:58.192Z,96905.69
2023-05-16T18:43:01.351Z,96923.34
2023-05-16T18:47:02.094Z,96951.72
2023-05-16T18:51:02.794Z,96944.78
2023-05-16T18:59:25.240Z,96930.41
2023-05-16T19:03:25.727Z,96959.81
2023-05-16T19:07:26.223Z,96982.88
2023-05-16T19:11:26.793Z,96988.81
2023-05-16T19:15:30.503Z,97003.28
2023-05-16T19:19:31.383Z,97003.25
2023-05-16T19:23:32.103Z,97005.41
2023-05-16T19:27:32.954Z,96998.44
2023-05-16T19:31:36.068Z,97001.13
2023-05-16T19:35:36.367Z,97013.69
2023-05-16T19:39:37.594Z,97013.34
2023-05-16T19:43:39.321Z,97002.03
2023-05-16T19:47:42.574Z,97008.44
2023-05-16T19:51:43.110Z,97002.88
2023-05-16T19:55:43.452Z,97014.38
2023-05-16T19:59:44.155Z,97013.34
2023-05-16T20:03:47.107Z,97006.91
2023-05-16T20:07:48.642Z,97002.59
2023-05-16T20:11:48.926Z,97018.66
2023-05-16T20:15:49.462Z,97029.63
2023-05-16T20:19:52.374Z,97028.78
2023-05-16T20:23:53.501Z,97026.13
2023-05-16T20:27:53.993Z,97043.09
2023-05-16T20:31:54.271Z,97029.72
2023-05-16T20:35:57.153Z,97031.78
2023-05-16T20:39:57.554Z,97041.28
2023-05-16T20:43:57.788Z,97045.50
2023-05-16T20:47:58.199Z,97049.44
2023-05-16T20:52:01.568Z,97055.38
2023-05-16T20:56:02.144Z,97046.50
2023-05-16T21:00:03.510Z,97053.03
2023-05-16T21:04:05.097Z,97049.63
2023-05-16T21:08:08.657Z,97027.53
2023-05-16T21:12:09.920Z,97049.75
2023-05-16T21:16:12.802Z,97054.88
2023-05-16T21:20:14.161Z,97062.22
2023-05-16T21:24:16.927Z,97073.13
2023-05-16T21:28:17.225Z,97062.56
2023-05-16T21:32:17.520Z,97071.50
2023-05-16T21:36:18.236Z,97064.16
2023-05-16T21:40:25.186Z,97058.81
2023-05-16T21:44:25.847Z,97070.72
2023-05-16T21:48:26.288Z,97071.34
2023-05-16T21:52:27.282Z,97072.41
2023-05-16T21:56:30.248Z,97066.91
2023-05-16T22:00:30.669Z,97083.06
2023-05-16T22:04:31.462Z,97086.72
2023-05-16T22:08:31.907Z,97079.81
2023-05-16T22:12:34.762Z,97103.91
2023-05-16T22:16:34.955Z,97100.50
2023-05-16T22:20:35.317Z,97102.81
2023-05-16T22:24:35.505Z,97105.41
2023-05-16T22:28:38.327Z,97089.47
2023-05-16T22:32:38.680Z,97115.91
2023-05-16T22:36:39.547Z,97116.16
2023-05-16T22:40:41.341Z,97119.63
2023-05-16T22:44:44.365Z,97112.63
2023-05-16T22:48:44.696Z,97118.44
2023-05-16T22:52:45.018Z,97137.06
2023-05-16T22:56:45.648Z,97141.97
2023-05-16T23:00:48.903Z,97142.56
2023-05-16T23:04:49.813Z,97132.09
2023-05-16T23:08:50.432Z,97139.06
2023-05-16T23:12:51.058Z,97141.63
2023-05-16T23:16:53.976Z,97143.13
2023-05-16T23:20:54.231Z,97134.84
2023-05-16T23:24:55.195Z,97157.47
2023-05-16T23:28:55.434Z,97151.13
2023-05-16T23:32:58.713Z,97146.25
2023-05-16T23:36:58.946Z,97150.91
2023-05-16T23:40:59.247Z,97160.81
2023-05-16T23:44:59.484Z,97162.28
2023-05-16T23:49:02.592Z,97172.03
2023-05-16T23:53:02.917Z,97178.81
2023-05-16T23:57:03.515Z,97183.72
